Time;durP1;ratioP1;P1;durP2;ratioP2;P2;SDS_P1;SDS_P2;PMS_P1;PMS_P2;Temp;Humidity;BMP_temperature;BMP_pressure;BME280_temperature;BME280_humidity;BME280_pressure;Samples;Min_cycle;Max_cycle;Signal;HPM_P1;HPM_P2
2022/01/15 00:02:08;;;;;;;8.63;2.90;;;6.50;99.90;;;;;;5131914;27;20052;-85
2022/01/15 00:04:33;;;;;;;6.55;2.80;;;6.60;99.90;;;;;;5095850;27;20047;-85
2022/01/15 00:06:59;;;;;;;13.65;2.55;;;6.50;99.90;;;;;;5111747;27;20465;-85
2022/01/15 00:09:25;;;;;;;7.63;2.58;;;6.50;99.90;;;;;;5113459;27;20043;-85
2022/01/15 00:11:52;;;;;;;8.00;2.50;;;6.50;99.90;;;;;;5111549;27;20432;-84
2022/01/15 00:14:33;;;;;;;5.03;2.13;;;5.40;99.90;;;;;;5096071;27;20043;-84
2022/01/15 00:17:15;;;;;;;14.25;1.80;;;6.80;99.90;;;;;;5111786;27;20487;-85
2022/01/15 00:19:43;;;;;;;6.68;1.38;;;6.50;99.90;;;;;;5097238;27;20053;-85
2022/01/15 00:22:10;;;;;;;15.27;1.38;;;6.50;99.90;;;;;;5112632;27;20043;-84
2022/01/15 00:24:36;;;;;;;10.70;1.42;;;6.40;99.90;;;;;;5110691;27;20142;-85
2022/01/15 00:27:02;;;;;;;8.38;1.13;;;7.70;99.90;;;;;;5113267;27;20054;-84
2022/01/15 00:29:30;;;;;;;13.50;1.70;;;6.40;99.90;;;;;;5093461;27;20513;-84
2022/01/15 00:31:56;;;;;;;8.85;1.10;;;6.40;99.90;;;;;;5095531;27;20054;-84
2022/01/15 00:34:21;;;;;;;6.63;1.58;;;6.40;99.90;;;;;;5094471;27;20047;-84
2022/01/15 00:36:47;;;;;;;7.22;1.23;;;7.40;99.90;;;;;;5111218;27;20126;-84
2022/01/15 00:39:13;;;;;;;11.75;1.30;;;6.40;99.90;;;;;;5078709;27;20053;-84
2022/01/15 00:41:38;;;;;;;6.85;1.27;;;6.40;99.90;;;;;;5110474;27;20043;-85
2022/01/15 00:44:05;;;;;;;2.50;1.40;;;6.40;99.90;;;;;;5131014;27;20410;-85
2022/01/15 00:46:30;;;;;;;1.88;1.20;;;6.40;99.90;;;;;;5093287;27;20071;-85
2022/01/15 00:48:56;;;;;;;7.50;1.33;;;7.40;99.90;;;;;;5112694;27;20123;-85
2022/01/15 00:51:22;;;;;;;2.13;1.15;;;6.30;99.90;;;;;;5129290;27;20077;-86
2022/01/15 00:53:48;;;;;;;1.67;0.80;;;6.30;99.90;;;;;;5129495;27;20498;-85
2022/01/15 00:56:14;;;;;;;1.67;0.95;;;6.30;99.90;;;;;;5111915;27;20041;-86
2022/01/15 00:58:40;;;;;;;4.45;1.00;;;6.30;99.90;;;;;;5093109;27;20054;-86
2022/01/15 01:01:06;;;;;;;1.17;0.80;;;7.20;99.90;;;;;;5095021;27;20051;-86
2022/01/15 01:03:31;;;;;;;2.15;1.02;;;6.20;99.90;;;;;;5076151;27;20079;-85
2022/01/15 01:05:57;;;;;;;8.73;1.08;;;6.20;99.90;;;;;;5094553;27;20456;-85
2022/01/15 01:08:23;;;;;;;1.45;0.82;;;6.20;99.90;;;;;;5093403;27;20039;-86
2022/01/15 01:10:57;;;;;;;1.30;0.80;;;6.20;99.90;;;;;;5094073;27;20134;-86
2022/01/15 01:20:00;;;;;;;1.13;0.73;;;6.20;99.90;;;;;;5095713;27;20039;-86
2022/01/15 01:24:19;;;;;;;3.67;0.40;;;7.70;99.90;;;;;;5109860;27;20062;-86
2022/01/15 01:27:08;;;;;;;2.53;0.60;;;6.20;99.90;;;;;;5095032;27;20127;-86
2022/01/15 01:29:48;;;;;;;1.30;0.60;;;6.20;99.90;;;;;;5081738;27;20055;-85
2022/01/15 01:32:34;;;;;;;0.80;0.40;;;6.20;99.90;;;;;;5110399;27;20111;-85
2022/01/15 01:35:06;;;;;;;1.10;0.40;;;6.20;99.90;;;;;;5096794;27;20058;-85
2022/01/15 01:37:38;;;;;;;9.65;0.50;;;6.40;99.90;;;;;;5093097;27;20551;-86
2022/01/15 01:42:56;;;;;;;2.08;0.43;;;6.10;99.90;;;;;;5128519;27;20135;-86
2022/01/15 01:45:21;;;;;;;9.23;0.55;;;6.10;99.90;;;;;;5093223;27;20035;-85
2022/01/15 01:47:47;;;;;;;1.80;0.93;;;6.10;99.90;;;;;;5077385;27;20490;-84
2022/01/15 01:50:24;;;;;;;1.48;0.80;;;7.80;99.90;;;;;;5092515;27;20085;-84
2022/01/15 01:52:53;;;;;;;1.17;0.93;;;6.10;99.90;;;;;;5130152;27;20062;-83
2022/01/15 01:55:22;;;;;;;4.45;1.10;;;6.10;99.90;;;;;;5128261;27;20043;-83
2022/01/15 01:57:49;;;;;;;10.73;1.25;;;6.10;99.90;;;;;;5093895;27;20046;-84
2022/01/15 02:00:16;;;;;;;2.78;1.40;;;7.20;99.90;;;;;;5129984;27;20084;-84
2022/01/15 02:02:43;;;;;;;4.57;0.95;;;6.20;99.90;;;;;;5109419;27;20074;-84
2022/01/15 02:05:09;;;;;;;3.63;0.82;;;7.50;99.90;;;;;;5110893;27;20092;-86
2022/01/15 02:07:36;;;;;;;1.40;0.60;;;6.10;99.90;;;;;;5091312;27;20130;-86
2022/01/15 02:10:03;;;;;;;3.40;0.80;;;6.10;99.90;;;;;;5111223;27;20047;-85
2022/01/15 02:12:29;;;;;;;2.05;0.52;;;6.10;99.90;;;;;;5127558;27;20106;-86
2022/01/15 02:14:54;;;;;;;5.85;0.70;;;6.40;99.90;;;;;;5128255;27;20123;-85
2022/01/15 02:17:21;;;;;;;10.82;0.60;;;6.60;99.90;;;;;;5109855;27;20058;-83
2022/01/15 02:20:10;;;;;;;1.23;0.50;;;6.10;99.90;;;;;;5108588;27;20054;-83
2022/01/15 02:25:20;;;;;;;1.70;0.70;;;6.10;99.90;;;;;;5109065;27;20112;-85
2022/01/15 02:27:45;;;;;;;1.55;0.55;;;6.00;99.90;;;;;;5075979;27;20043;-86
2022/01/15 02:30:12;;;;;;;3.08;0.60;;;6.00;99.90;;;;;;5109959;27;20039;-85
2022/01/15 02:32:38;;;;;;;1.90;1.02;;;6.00;99.90;;;;;;5091430;27;20064;-85
2022/01/15 02:35:04;;;;;;;2.40;0.80;;;6.00;99.90;;;;;;5110561;27;20051;-85
2022/01/15 02:37:30;;;;;;;2.97;0.50;;;6.00;99.90;;;;;;5108115;27;20072;-85
2022/01/15 02:39:57;;;;;;;3.67;0.85;;;6.00;99.90;;;;;;5110356;27;20039;-86
2022/01/15 02:42:26;;;;;;;1.20;0.57;;;5.90;99.90;;;;;;5074920;27;20047;-85
2022/01/15 02:44:59;;;;;;;1.52;0.95;;;5.90;99.90;;;;;;5109310;27;20059;-86
2022/01/15 02:50:09;;;;;;;9.32;0.95;;;5.90;99.90;;;;;;5108247;28;20105;-85
2022/01/15 02:52:35;;;;;;;2.92;1.00;;;5.90;99.90;;;;;;5110633;28;20172;-85
2022/01/15 02:55:01;;;;;;;2.85;0.93;;;5.90;99.90;;;;;;5108180;28;20126;-85
2022/01/15 02:57:26;;;;;;;2.05;0.90;;;5.80;99.90;;;;;;5109805;28;20043;-85
2022/01/15 02:59:52;;;;;;;2.58;1.05;;;5.80;99.90;;;;;;5109316;28;20058;-86
2022/01/15 03:02:18;;;;;;;2.78;0.80;;;5.80;99.90;;;;;;5108914;28;20097;-85
2022/01/15 03:04:43;;;;;;;2.30;0.60;;;6.50;99.90;;;;;;5110013;28;20410;-85
2022/01/15 03:07:09;;;;;;;1.30;0.70;;;5.80;99.90;;;;;;5090868;28;20050;-85
2022/01/15 03:09:35;;;;;;;2.85;0.60;;;5.80;99.90;;;;;;5128645;28;20085;-85
2022/01/15 03:12:02;;;;;;;1.80;0.63;;;7.70;99.90;;;;;;5108362;28;20047;-85
2022/01/15 03:14:31;;;;;;;2.67;0.98;;;5.80;99.90;;;;;;5092970;28;20036;-86
2022/01/15 03:16:56;;;;;;;1.42;0.80;;;5.80;99.90;;;;;;5091969;28;20043;-85
2022/01/15 03:19:22;;;;;;;1.23;0.65;;;5.70;99.90;;;;;;5108600;28;20069;-85
2022/01/15 03:21:48;;;;;;;2.03;1.08;;;6.10;99.90;;;;;;5093030;28;20031;-85
2022/01/15 03:24:13;;;;;;;4.00;0.93;;;5.70;99.90;;;;;;5074040;28;20092;-85
2022/01/15 03:26:39;;;;;;;2.35;1.02;;;5.70;99.90;;;;;;5092950;28;20054;-85
2022/01/15 03:29:05;;;;;;;2.88;1.08;;;5.80;99.90;;;;;;5107779;27;20486;-86
2022/01/15 03:31:31;;;;;;;1.83;0.88;;;5.90;99.90;;;;;;5114087;27;20104;-85
2022/01/15 03:33:57;;;;;;;1.30;0.70;;;7.70;99.90;;;;;;5112317;27;20046;-85
2022/01/15 03:36:22;;;;;;;1.40;0.82;;;5.80;99.90;;;;;;5112706;27;20053;-85
2022/01/15 03:38:48;;;;;;;3.38;0.90;;;5.80;99.90;;;;;;5063130;27;20039;-85
2022/01/15 03:41:14;;;;;;;4.15;0.75;;;6.50;99.90;;;;;;5111276;27;20425;-85
2022/01/15 03:43:40;;;;;;;1.75;1.05;;;5.80;99.90;;;;;;5113500;27;20051;-85
2022/01/15 03:46:06;;;;;;;2.25;1.00;;;5.90;99.90;;;;;;5110958;27;20528;-85
2022/01/15 03:48:32;;;;;;;4.47;1.85;;;6.00;99.90;;;;;;5097014;27;20038;-85
2022/01/15 03:50:58;;;;;;;4.15;1.50;;;5.90;99.90;;;;;;5077952;27;20068;-85
2022/01/15 03:53:24;;;;;;;2.50;1.52;;;6.10;99.90;;;;;;5112324;27;20053;-84
2022/01/15 03:55:50;;;;;;;10.07;1.63;;;5.90;99.90;;;;;;5113056;27;20051;-86
2022/01/15 03:58:16;;;;;;;3.05;1.67;;;5.90;99.90;;;;;;5111057;27;20043;-86
2022/01/15 04:00:42;;;;;;;4.95;1.42;;;5.90;99.90;;;;;;5096045;27;20043;-85
2022/01/15 04:03:08;;;;;;;3.50;1.98;;;4.30;99.90;;;;;;5093775;27;20041;-85
2022/01/15 04:05:33;;;;;;;5.45;2.15;;;7.00;99.90;;;;;;5062971;27;20039;-85
2022/01/15 04:08:00;;;;;;;5.55;1.90;;;6.20;99.90;;;;;;5094491;27;20441;-85
2022/01/15 04:10:26;;;;;;;5.88;1.98;;;6.50;99.90;;;;;;5078199;27;20039;-86
2022/01/15 04:12:52;;;;;;;4.53;1.88;;;5.90;99.90;;;;;;5095593;27;20075;-85
2022/01/15 04:15:18;;;;;;;4.05;1.35;;;5.90;99.90;;;;;;5093572;27;20089;-85
2022/01/15 04:17:47;;;;;;;7.15;1.45;;;5.90;99.90;;;;;;5112877;27;20074;-85
2022/01/15 04:20:16;;;;;;;8.10;2.00;;;7.30;99.90;;;;;;5110747;27;20096;-86
2022/01/15 04:22:41;;;;;;;4.22;1.48;;;5.90;99.90;;;;;;5095801;27;20084;-86
2022/01/15 04:25:08;;;;;;;5.40;1.17;;;5.90;99.90;;;;;;5094467;27;20039;-86
2022/01/15 04:27:34;;;;;;;5.50;1.35;;;5.90;99.90;;;;;;5095414;27;20533;-85
2022/01/15 04:30:03;;;;;;;4.53;1.60;;;6.10;99.90;;;;;;5112422;27;20050;-86
2022/01/15 04:32:30;;;;;;;4.28;1.58;;;5.90;99.90;;;;;;5111025;27;20440;-85
2022/01/15 04:34:58;;;;;;;5.53;1.48;;;5.90;99.90;;;;;;5112792;27;20410;-85
2022/01/15 04:37:32;;;;;;;1.83;1.05;;;7.50;99.90;;;;;;5093572;27;20035;-85
2022/01/15 04:39:57;;;;;;;3.85;1.50;;;5.90;99.90;;;;;;5112812;27;20098;-85
2022/01/15 04:42:25;;;;;;;3.85;1.70;;;5.90;99.90;;;;;;5110888;27;20077;-85
2022/01/15 04:44:50;;;;;;;5.45;1.40;;;5.90;99.90;;;;;;5094265;27;20090;-85
2022/01/15 04:47:16;;;;;;;3.97;1.58;;;5.90;99.90;;;;;;5095189;27;20113;-85
2022/01/15 04:49:42;;;;;;;3.65;1.42;;;5.80;99.90;;;;;;5093547;27;20039;-85
2022/01/15 04:52:08;;;;;;;3.50;1.40;;;7.50;99.90;;;;;;5112745;27;20089;-85
2022/01/15 04:54:34;;;;;;;2.85;1.30;;;7.60;99.90;;;;;;5092975;27;20383;-85
2022/01/15 04:57:00;;;;;;;2.10;1.15;;;5.80;99.90;;;;;;5095492;27;20051;-85
2022/01/15 04:59:26;;;;;;;2.95;1.40;;;5.80;99.90;;;;;;5094084;27;20043;-84
2022/01/15 05:01:52;;;;;;;3.70;1.25;;;6.20;99.90;;;;;;5111370;27;20031;-84
2022/01/15 05:04:17;;;;;;;4.60;1.13;;;5.80;99.90;;;;;;5094739;27;20471;-84
2022/01/15 05:06:43;;;;;;;4.18;1.50;;;5.90;99.90;;;;;;5093421;27;20072;-84
2022/01/15 05:09:09;;;;;;;1.52;0.82;;;5.80;99.90;;;;;;5112229;27;20082;-85
2022/01/15 05:12:22;;;;;;;2.33;1.20;;;5.80;99.90;;;;;;5109551;27;20345;-85
2022/01/15 05:14:29;;;;;;;2.50;1.27;;;5.90;99.90;;;;;;5107303;27;20043;-85
2022/01/15 05:16:54;;;;;;;3.20;1.20;;;5.80;99.90;;;;;;5094393;27;20054;-84
2022/01/15 05:19:20;;;;;;;4.50;1.65;;;6.00;99.90;;;;;;5093103;27;20047;-85
2022/01/15 05:21:46;;;;;;;3.03;1.52;;;5.90;99.90;;;;;;5095170;27;20050;-85
2022/01/15 05:24:12;;;;;;;2.22;1.00;;;5.90;99.90;;;;;;5109346;27;20553;-85
2022/01/15 05:26:37;;;;;;;7.35;2.05;;;5.90;99.90;;;;;;5112161;27;20104;-85
2022/01/15 05:29:03;;;;;;;3.03;1.20;;;5.90;99.90;;;;;;5092905;27;20133;-85
2022/01/15 05:31:29;;;;;;;3.30;1.45;;;7.30;99.90;;;;;;5111053;27;20039;-85
2022/01/15 05:33:55;;;;;;;3.05;1.35;;;5.90;99.90;;;;;;5094277;27;20050;-85
2022/01/15 05:36:21;;;;;;;3.53;1.88;;;5.90;99.90;;;;;;5093005;27;20047;-85
2022/01/15 05:38:47;;;;;;;2.35;1.30;;;5.90;99.90;;;;;;5111535;27;20501;-86
2022/01/15 05:41:13;;;;;;;3.10;1.63;;;6.70;99.90;;;;;;5109326;27;20050;-85
2022/01/15 05:43:38;;;;;;;2.58;1.40;;;6.30;99.90;;;;;;5110918;27;20128;-85
2022/01/15 05:46:04;;;;;;;7.38;1.55;;;5.90;99.90;;;;;;5109238;27;20043;-85
2022/01/15 05:48:30;;;;;;;5.80;1.65;;;5.90;99.90;;;;;;5111023;27;20077;-85
2022/01/15 05:50:55;;;;;;;2.28;1.35;;;5.90;99.90;;;;;;5110564;27;20039;-84
2022/01/15 05:53:21;;;;;;;3.13;1.50;;;5.90;99.90;;;;;;5092886;27;20395;-85
2022/01/15 05:55:47;;;;;;;3.88;1.98;;;7.00;99.90;;;;;;5094200;27;20530;-84
2022/01/15 05:58:13;;;;;;;3.22;1.40;;;5.90;99.90;;;;;;5091905;27;20039;-84
2022/01/15 06:00:38;;;;;;;7.72;1.38;;;5.90;99.90;;;;;;5094578;27;20035;-84
2022/01/15 06:03:04;;;;;;;5.13;2.17;;;5.90;99.90;;;;;;5091994;27;20086;-85
2022/01/15 06:05:30;;;;;;;3.40;1.55;;;5.90;99.90;;;;;;5110764;27;20046;-85
2022/01/15 06:07:55;;;;;;;3.08;1.50;;;5.90;99.90;;;;;;5128614;27;20050;-84
2022/01/15 06:10:21;;;;;;;3.75;1.67;;;5.90;99.90;;;;;;5109894;27;20092;-85
2022/01/15 06:12:47;;;;;;;4.38;1.80;;;5.90;99.90;;;;;;5110633;27;20440;-85
2022/01/15 06:15:14;;;;;;;4.55;2.13;;;6.10;99.90;;;;;;5091812;27;20134;-84
2022/01/15 06:17:41;;;;;;;6.90;1.85;;;6.00;99.90;;;;;;5093991;27;20130;-85
2022/01/15 06:20:08;;;;;;;3.92;2.40;;;5.90;99.90;;;;;;5108593;27;20043;-85
2022/01/15 06:22:34;;;;;;;3.95;1.73;;;5.90;99.90;;;;;;5093525;27;20047;-86
2022/01/15 06:25:02;;;;;;;5.65;2.85;;;5.90;99.90;;;;;;5092237;27;20087;-85
2022/01/15 06:27:28;;;;;;;5.10;2.28;;;5.90;99.90;;;;;;5092710;27;20482;-85
2022/01/15 06:29:56;;;;;;;4.90;2.25;;;5.90;99.90;;;;;;5093254;27;20082;-84
2022/01/15 06:32:22;;;;;;;5.57;1.88;;;5.90;99.90;;;;;;5091325;27;20618;-85
2022/01/15 06:34:48;;;;;;;4.60;2.50;;;6.20;99.90;;;;;;5093559;27;20074;-85
2022/01/15 06:37:14;;;;;;;5.72;2.53;;;5.90;99.90;;;;;;5108348;27;20062;-86
2022/01/15 06:39:40;;;;;;;5.28;2.83;;;6.40;99.90;;;;;;5093729;27;20055;-84
2022/01/15 06:42:05;;;;;;;4.35;2.35;;;5.90;99.90;;;;;;5109208;27;20039;-85
2022/01/15 06:44:31;;;;;;;5.43;2.50;;;5.90;99.90;;;;;;5108785;27;20051;-85
2022/01/15 06:46:57;;;;;;;8.35;2.55;;;5.90;99.90;;;;;;5109984;27;20039;-85
2022/01/15 06:49:23;;;;;;;4.03;2.30;;;6.30;99.90;;;;;;5126952;27;20054;-84
2022/01/15 06:51:49;;;;;;;3.60;1.95;;;5.90;99.90;;;;;;5093664;28;20035;-84
2022/01/15 06:54:14;;;;;;;6.80;2.78;;;5.90;99.90;;;;;;5107818;28;20053;-85
2022/01/15 06:56:40;;;;;;;4.88;2.20;;;5.90;99.90;;;;;;5093513;28;20143;-85
2022/01/15 06:59:06;;;;;;;8.75;2.63;;;6.60;99.90;;;;;;5127463;28;20035;-84
2022/01/15 07:01:31;;;;;;;6.55;2.88;;;5.90;99.90;;;;;;5108983;28;20471;-85
2022/01/15 07:03:57;;;;;;;6.22;2.25;;;5.90;99.90;;;;;;5128760;27;20035;-85
2022/01/15 07:06:23;;;;;;;3.53;2.13;;;5.90;99.90;;;;;;5112457;27;20039;-85
2022/01/15 07:08:49;;;;;;;3.95;2.13;;;5.90;99.90;;;;;;5114128;27;20039;-85
2022/01/15 07:11:14;;;;;;;3.97;1.95;;;5.90;99.90;;;;;;5130682;27;20043;-85
2022/01/15 07:13:40;;;;;;;7.30;2.70;;;5.90;99.90;;;;;;5114579;27;20491;-85
2022/01/15 07:16:06;;;;;;;3.78;2.05;;;5.90;99.90;;;;;;5095347;27;20047;-85
2022/01/15 07:18:32;;;;;;;4.78;2.42;;;5.90;99.90;;;;;;5113485;27;20489;-85
2022/01/15 07:20:58;;;;;;;4.28;2.15;;;5.90;99.90;;;;;;5096759;27;20043;-85
2022/01/15 07:23:23;;;;;;;6.80;2.72;;;5.90;99.90;;;;;;5095626;27;20050;-85
2022/01/15 07:25:49;;;;;;;6.88;2.35;;;5.90;99.90;;;;;;5080184;27;20077;-85
2022/01/15 07:28:17;;;;;;;4.53;2.50;;;5.90;99.90;;;;;;5094570;27;20391;-85
2022/01/15 07:30:43;;;;;;;5.90;2.33;;;5.90;99.90;;;;;;5097065;27;20050;-85
2022/01/15 07:33:09;;;;;;;5.00;2.60;;;5.90;99.90;;;;;;5112600;27;20043;-85
2022/01/15 07:35:34;;;;;;;4.40;2.42;;;5.80;99.90;;;;;;5096144;27;20047;-85
2022/01/15 07:38:00;;;;;;;5.53;2.67;;;5.90;99.90;;;;;;5096578;27;20047;-85
2022/01/15 07:40:26;;;;;;;7.10;2.85;;;5.90;99.90;;;;;;5113078;27;20039;-86
2022/01/15 07:42:52;;;;;;;7.03;3.17;;;5.90;99.90;;;;;;5080394;27;20051;-85
2022/01/15 07:45:18;;;;;;;5.78;2.33;;;5.90;99.90;;;;;;5111307;27;20599;-85
2022/01/15 07:47:44;;;;;;;4.50;2.78;;;5.80;99.90;;;;;;5096639;27;20054;-85
2022/01/15 07:50:23;;;;;;;7.88;2.53;;;5.90;99.90;;;;;;5112007;27;20043;-81
2022/01/15 07:52:51;;;;;;;6.57;2.17;;;5.80;99.90;;;;;;5112830;27;20114;-84
2022/01/15 07:55:17;;;;;;;4.60;2.33;;;5.80;99.90;;;;;;5113183;27;20082;-84
2022/01/15 07:57:44;;;;;;;4.47;2.58;;;5.80;99.90;;;;;;5112111;27;20078;-84
2022/01/15 08:00:14;;;;;;;4.22;2.53;;;5.80;99.90;;;;;;5113507;27;20047;-84
2022/01/15 08:02:40;;;;;;;5.40;2.63;;;5.80;99.90;;;;;;5094160;27;20036;-83
2022/01/15 08:05:07;;;;;;;8.98;2.90;;;5.80;99.90;;;;;;5113418;27;20074;-84
2022/01/15 08:07:33;;;;;;;5.18;2.72;;;5.80;99.90;;;;;;5111954;27;20058;-82
2022/01/15 08:09:58;;;;;;;5.53;2.35;;;5.80;99.90;;;;;;5112155;27;20027;-84
2022/01/15 08:12:24;;;;;;;3.80;2.03;;;6.10;99.90;;;;;;5112691;27;20092;-84
2022/01/15 08:14:50;;;;;;;3.30;1.90;;;5.80;99.90;;;;;;5093993;27;20055;-87
2022/01/15 08:17:16;;;;;;;5.55;2.55;;;5.80;99.90;;;;;;5094785;27;20093;-86
2022/01/15 08:19:42;;;;;;;4.05;2.05;;;5.80;99.90;;;;;;5129399;27;20053;-85
2022/01/15 08:22:07;;;;;;;2.15;1.33;;;5.80;99.90;;;;;;5131539;27;20050;-86
2022/01/15 08:24:33;;;;;;;6.90;1.73;;;5.80;99.90;;;;;;5111271;27;20508;-85
2022/01/15 08:26:59;;;;;;;4.43;1.90;;;5.80;99.90;;;;;;5112231;27;20123;-86
2022/01/15 08:29:24;;;;;;;3.33;2.20;;;5.80;99.90;;;;;;5095240;27;20407;-85
2022/01/15 08:31:50;;;;;;;3.97;1.92;;;5.80;99.90;;;;;;5094165;27;20054;-86
2022/01/15 08:34:16;;;;;;;3.92;1.55;;;5.80;99.90;;;;;;5112536;27;20057;-85
2022/01/15 08:36:41;;;;;;;4.32;2.00;;;7.30;99.90;;;;;;5110370;27;20096;-88
2022/01/15 08:39:08;;;;;;;3.88;1.65;;;5.80;99.90;;;;;;5113219;27;20043;-86
2022/01/15 08:41:34;;;;;;;5.85;2.17;;;5.80;99.90;;;;;;5111122;27;20054;-85
2022/01/15 08:44:01;;;;;;;4.53;1.95;;;5.80;99.90;;;;;;5112377;27;20082;-86
2022/01/15 08:46:27;;;;;;;5.43;2.88;;;7.50;99.90;;;;;;5111934;27;20505;-85
2022/01/15 08:48:53;;;;;;;4.85;2.50;;;5.80;99.90;;;;;;5129268;27;20051;-87
2022/01/15 08:51:18;;;;;;;2.92;1.83;;;5.80;99.90;;;;;;5112629;27;20122;-83
2022/01/15 08:53:44;;;;;;;4.25;2.38;;;7.60;99.90;;;;;;5093584;27;20047;-83
2022/01/15 08:56:10;;;;;;;3.15;1.73;;;5.90;99.90;;;;;;5112566;27;20039;-84
2022/01/15 08:58:36;;;;;;;3.85;2.00;;;5.90;99.90;;;;;;5110789;27;20043;-82
2022/01/15 09:01:04;;;;;;;5.47;2.47;;;5.90;99.90;;;;;;5095501;27;20133;-82
2022/01/15 09:03:33;;;;;;;2.55;1.63;;;5.90;99.90;;;;;;5111389;27;20039;-85
2022/01/15 09:05:59;;;;;;;3.85;2.13;;;5.90;99.90;;;;;;5110998;27;20043;-83
2022/01/15 09:08:26;;;;;;;6.70;2.47;;;5.90;99.90;;;;;;5113077;27;20478;-85
2022/01/15 09:10:52;;;;;;;4.40;2.08;;;5.80;99.90;;;;;;5129614;27;20050;-84
2022/01/15 09:13:18;;;;;;;6.93;2.20;;;5.80;99.90;;;;;;5113090;27;20039;-85
2022/01/15 09:15:44;;;;;;;4.38;2.50;;;5.80;99.90;;;;;;5110328;27;20180;-86
2022/01/15 09:18:10;;;;;;;4.20;1.98;;;5.80;99.90;;;;;;5112029;27;20058;-87
2022/01/15 09:20:36;;;;;;;8.90;2.17;;;5.80;99.90;;;;;;5093616;27;20043;-85
2022/01/15 09:23:02;;;;;;;4.45;1.92;;;5.80;99.90;;;;;;5093874;27;20043;-89
2022/01/15 09:25:28;;;;;;;4.93;1.73;;;5.80;99.90;;;;;;5111598;27;20076;-85
2022/01/15 09:30:39;;;;;;;2.38;1.35;;;5.80;99.90;;;;;;5112549;27;20054;-88
2022/01/15 09:33:06;;;;;;;3.63;1.55;;;6.30;99.90;;;;;;5093047;27;20039;-86
2022/01/15 09:35:38;;;;;;;3.67;1.30;;;5.80;99.90;;;;;;5094556;27;20093;-81
2022/01/15 09:38:05;;;;;;;4.65;1.70;;;5.90;99.90;;;;;;5111242;27;20058;-84
2022/01/15 09:40:30;;;;;;;5.18;1.23;;;5.90;99.90;;;;;;5093168;27;20672;-79
2022/01/15 09:42:57;;;;;;;2.10;1.00;;;5.90;99.90;;;;;;5111629;27;20093;-81
2022/01/15 09:45:24;;;;;;;2.28;1.20;;;5.90;99.90;;;;;;5091869;27;20213;-81
2022/01/15 09:47:57;;;;;;;2.25;1.15;;;5.90;99.90;;;;;;5094886;27;20043;-81
2022/01/15 09:50:24;;;;;;;3.55;1.60;;;5.90;99.90;;;;;;5093008;27;20475;-83
2022/01/15 09:52:50;;;;;;;2.72;1.45;;;6.90;99.90;;;;;;5093611;27;20039;-83
2022/01/15 09:55:16;;;;;;;3.47;1.65;;;6.30;99.90;;;;;;5094079;27;20047;-82
2022/01/15 09:57:42;;;;;;;5.60;1.55;;;5.90;99.90;;;;;;5092274;27;20039;-82
2022/01/15 10:00:14;;;;;;;3.47;1.65;;;5.80;99.90;;;;;;5094133;27;20043;-84
2022/01/15 10:02:42;;;;;;;3.77;2.27;;;5.90;99.90;;;;;;5109041;27;20043;-81
2022/01/15 10:05:08;;;;;;;7.68;2.30;;;5.80;99.90;;;;;;5077472;27;20697;-82
2022/01/15 10:07:34;;;;;;;3.75;1.98;;;5.80;99.90;;;;;;5128556;27;20079;-80
2022/01/15 10:10:18;;;;;;;3.70;2.10;;;5.80;99.90;;;;;;5093156;27;20047;-81
2022/01/15 10:12:44;;;;;;;5.88;2.58;;;5.90;99.90;;;;;;5094396;27;20046;-81
2022/01/15 10:15:12;;;;;;;8.88;3.45;;;5.90;99.90;;;;;;5127305;27;20482;-81
2022/01/15 10:17:40;;;;;;;6.15;3.53;;;6.50;99.90;;;;;;5129477;27;20494;-80
2022/01/15 10:20:22;;;;;;;6.97;3.75;;;5.90;99.90;;;;;;5092692;27;20488;-81
2022/01/15 10:22:51;;;;;;;5.50;3.07;;;5.80;99.90;;;;;;5109900;27;20501;-81
2022/01/15 10:25:21;;;;;;;8.82;4.25;;;6.80;99.90;;;;;;5093417;27;20309;-81
2022/01/15 10:27:49;;;;;;;6.88;3.85;;;5.80;99.90;;;;;;5127731;27;20424;-82
2022/01/15 10:30:19;;;;;;;6.47;3.78;;;5.90;99.90;;;;;;5129436;27;20486;-83
2022/01/15 10:33:11;;;;;;;7.47;3.70;;;5.90;99.90;;;;;;5127251;27;20064;-82
2022/01/15 10:35:38;;;;;;;10.30;4.70;;;5.90;99.90;;;;;;5087786;27;20489;-83
2022/01/15 10:38:09;;;;;;;10.38;4.85;;;5.90;99.90;;;;;;5093222;27;20129;-82
2022/01/15 10:40:44;;;;;;;11.30;5.22;;;5.90;99.90;;;;;;5126352;27;20059;-80
2022/01/15 10:43:12;;;;;;;11.02;5.57;;;5.90;99.90;;;;;;5129602;27;20043;-82
2022/01/15 10:45:54;;;;;;;10.48;5.70;;;6.00;99.90;;;;;;5126962;27;20119;-81
2022/01/15 10:48:34;;;;;;;9.48;4.90;;;6.00;99.90;;;;;;5109426;27;20062;-81
2022/01/15 10:51:07;;;;;;;12.52;5.40;;;6.00;99.90;;;;;;5110530;27;20051;-80
2022/01/15 10:53:42;;;;;;;9.38;5.20;;;6.00;99.90;;;;;;5108686;28;20088;-82
2022/01/15 10:56:09;;;;;;;8.60;4.85;;;7.30;99.90;;;;;;5129042;28;20061;-82
2022/01/15 10:58:36;;;;;;;11.27;5.25;;;6.00;99.90;;;;;;5108974;28;20098;-82
2022/01/15 11:01:03;;;;;;;9.95;4.93;;;6.00;99.90;;;;;;5091181;28;20047;-81
2022/01/15 11:03:45;;;;;;;9.80;5.28;;;6.00;99.90;;;;;;5109509;28;20039;-81
2022/01/15 11:06:11;;;;;;;8.80;5.10;;;6.00;99.90;;;;;;5127056;28;20053;-82
2022/01/15 11:08:44;;;;;;;9.05;4.88;;;6.00;99.90;;;;;;5093363;28;20038;-82
2022/01/15 11:11:13;;;;;;;10.00;5.18;;;6.60;99.90;;;;;;5107856;28;20047;-82
2022/01/15 11:13:41;;;;;;;8.77;4.97;;;6.40;99.90;;;;;;5109913;28;20700;-81
2022/01/15 11:16:16;;;;;;;10.50;5.40;;;6.10;99.90;;;;;;5108909;28;20043;-81
2022/01/15 11:18:49;;;;;;;6.85;4.30;;;5.90;99.90;;;;;;5108687;28;20046;-81
2022/01/15 11:21:18;;;;;;;9.95;4.95;;;5.90;99.90;;;;;;5110213;28;20058;-81
2022/01/15 11:23:45;;;;;;;9.25;4.43;;;5.90;99.90;;;;;;5126530;28;20043;-82
2022/01/15 11:26:13;;;;;;;10.55;4.75;;;5.90;99.90;;;;;;5109950;28;20043;-81
2022/01/15 11:28:41;;;;;;;7.88;4.32;;;5.90;99.90;;;;;;5108541;28;20514;-80
2022/01/15 11:31:09;;;;;;;13.63;5.22;;;6.20;99.90;;;;;;5092233;28;20051;-81
2022/01/15 11:33:38;;;;;;;10.40;4.97;;;5.90;99.90;;;;;;5109516;28;20082;-81
2022/01/15 11:36:07;;;;;;;9.13;5.13;;;6.20;99.90;;;;;;5126510;27;20047;-82
2022/01/15 11:38:47;;;;;;;9.23;5.38;;;5.90;99.90;;;;;;5109938;28;20039;-81
2022/01/15 11:41:27;;;;;;;7.97;4.43;;;6.00;99.90;;;;;;5107930;28;20043;-81
2022/01/15 11:43:54;;;;;;;10.20;4.90;;;6.00;99.90;;;;;;5091872;28;20043;-81
2022/01/15 11:46:54;;;;;;;11.57;5.03;;;6.00;99.90;;;;;;5109541;28;20058;-81
2022/01/15 11:49:30;;;;;;;9.05;5.10;;;6.00;99.90;;;;;;5107789;28;20537;-81
2022/01/15 11:52:08;;;;;;;11.90;5.55;;;6.00;99.90;;;;;;5096265;27;20129;-81
2022/01/15 11:54:35;;;;;;;11.43;6.05;;;6.00;99.90;;;;;;5112891;27;20075;-80
2022/01/15 11:57:02;;;;;;;14.77;6.88;;;6.00;99.90;;;;;;5130742;27;20062;-81
2022/01/15 11:59:31;;;;;;;13.75;6.05;;;6.00;99.90;;;;;;5096406;27;20075;-80
2022/01/15 12:02:02;;;;;;;13.50;6.38;;;6.00;99.90;;;;;;5130452;27;20140;-80
2022/01/15 12:04:35;;;;;;;11.93;6.20;;;6.00;99.90;;;;;;5113438;27;20046;-80
2022/01/15 12:07:00;;;;;;;17.70;8.02;;;6.00;99.90;;;;;;5111496;27;20178;-80
2022/01/15 12:09:49;;;;;;;11.43;6.38;;;5.90;99.90;;;;;;5112984;27;20126;-79
2022/01/15 12:12:26;;;;;;;15.68;7.13;;;5.90;99.90;;;;;;5131757;27;20101;-80
2022/01/15 12:15:02;;;;;;;13.40;6.90;;;6.20;99.90;;;;;;5093669;27;20047;-80
2022/01/15 12:17:39;;;;;;;14.48;7.13;;;6.80;99.90;;;;;;5113170;27;20051;-82
2022/01/15 12:20:25;;;;;;;13.75;7.85;;;5.90;99.90;;;;;;5130792;27;20054;-80
2022/01/15 12:22:58;;;;;;;15.18;7.50;;;5.90;99.90;;;;;;5111228;27;20043;-81
2022/01/15 12:25:27;;;;;;;;;;;6.60;99.90;;;;;;5113407;27;20059;-81
2022/01/15 12:27:57;;;;;;;13.02;6.60;;;5.90;99.90;;;;;;5110656;27;20455;-81
2022/01/15 12:30:27;;;;;;;12.55;7.13;;;5.90;99.90;;;;;;5113000;27;20039;-80
2022/01/15 12:32:55;;;;;;;10.73;6.22;;;5.80;99.90;;;;;;5130462;27;20053;-82
2022/01/15 12:35:26;;;;;;;10.48;7.00;;;5.80;99.90;;;;;;5094528;27;20046;-81
2022/01/15 12:37:59;;;;;;;12.73;7.13;;;5.80;99.90;;;;;;5112468;27;20123;-80
2022/01/15 12:40:34;;;;;;;13.38;7.93;;;5.70;99.90;;;;;;5111274;27;20075;-80
2022/01/15 12:43:24;;;;;;;12.90;7.32;;;5.70;99.90;;;;;;5113011;27;20425;-82
2022/01/15 12:46:02;;;;;;;13.15;7.43;;;5.60;99.90;;;;;;5080138;27;20056;-80
2022/01/15 12:48:34;;;;;;;12.23;6.97;;;5.60;99.90;;;;;;5111020;27;20129;-80
2022/01/15 12:51:20;;;;;;;12.00;7.43;;;5.60;99.90;;;;;;5095442;27;20047;-81
2022/01/15 12:53:53;;;;;;;12.98;7.25;;;7.10;99.90;;;;;;5110392;27;20085;-79
2022/01/15 12:56:19;;;;;;;17.13;7.10;;;5.60;99.90;;;;;;5095159;27;20050;-79
2022/01/15 12:58:46;;;;;;;14.60;8.23;;;7.50;99.90;;;;;;5129902;27;20039;-80
2022/01/15 13:01:20;;;;;;;15.02;7.70;;;5.60;99.90;;;;;;5110943;27;20043;-80
2022/01/15 13:03:45;;;;;;;12.68;7.30;;;5.60;99.90;;;;;;5111546;27;20039;-79
2022/01/15 13:06:11;;;;;;;13.20;8.55;;;5.60;99.90;;;;;;5110165;27;20047;-80
2022/01/15 13:08:42;;;;;;;15.20;9.60;;;6.30;99.90;;;;;;5095578;27;20035;-79
2022/01/15 13:13:51;;;;;;;14.07;8.82;;;5.50;99.90;;;;;;5110278;27;20426;-79
2022/01/15 13:16:22;;;;;;;13.48;8.73;;;5.50;99.90;;;;;;5093918;27;20050;-82
2022/01/15 13:18:54;;;;;;;15.45;9.23;;;5.50;99.90;;;;;;5108563;27;20047;-81
2022/01/15 13:21:28;;;;;;;18.33;10.03;;;5.40;99.90;;;;;;5130530;27;20047;-79
2022/01/15 13:24:02;;;;;;;16.80;9.70;;;5.40;99.90;;;;;;5128601;27;20544;-81